sensor_id;sensor_type;location;lat;lon;timestamp;temperature;humidity
21759;DHT22;11041;50.854;20.580;2023-08-01T00:00:43;15.60;99.90
21759;DHT22;11041;50.854;20.580;2023-08-01T00:03:25;15.60;99.90
21759;DHT22;11041;50.854;20.580;2023-08-01T00:05:52;15.70;99.90
21759;DHT22;11041;50.854;20.580;2023-08-01T00:08:21;15.60;99.90
21759;DHT22;11041;50.854;20.580;2023-08-01T00:10:48;15.50;99.90
21759;DHT22;11041;50.854;20.580;2023-08-01T00:13:15;15.30;99.90
21759;DHT22;11041;50.854;20.580;2023-08-01T00:15:41;15.30;99.90
21759;DHT22;11041;50.854;20.580;2023-08-01T00:18:07;15.30;99.90
21759;DHT22;11041;50.854;20.580;2023-08-01T00:20:34;15.40;99.90
21759;DHT22;11041;50.854;20.580;2023-08-01T00:23:01;15.50;99.90
21759;DHT22;11041;50.854;20.580;2023-08-01T00:25:27;15.50;99.90
21759;DHT22;11041;50.854;20.580;2023-08-01T00:27:54;15.60;99.90
21759;DHT22;11041;50.854;20.580;2023-08-01T00:30:20;15.60;99.90
21759;DHT22;11041;50.854;20.580;2023-08-01T00:32:47;15.60;99.90
21759;DHT22;11041;50.854;20.580;2023-08-01T00:35:14;15.60;99.90
21759;DHT22;11041;50.854;20.580;2023-08-01T00:37:42;15.70;99.90
21759;DHT22;11041;50.854;20.580;2023-08-01T00:40:09;15.60;99.90
21759;DHT22;11041;50.854;20.580;2023-08-01T00:42:36;15.50;99.90
21759;DHT22;11041;50.854;20.580;2023-08-01T00:45:05;15.50;99.90
21759;DHT22;11041;50.854;20.580;2023-08-01T00:47:32;15.30;99.90
21759;DHT22;11041;50.854;20.580;2023-08-01T00:49:59;15.30;99.90
21759;DHT22;11041;50.854;20.580;2023-08-01T00:52:26;15.40;99.90
21759;DHT22;11041;50.854;20.580;2023-08-01T00:54:54;15.30;99.90
21759;DHT22;11041;50.854;20.580;2023-08-01T00:57:21;15.20;99.90
21759;DHT22;11041;50.854;20.580;2023-08-01T00:59:48;15.20;99.90
21759;DHT22;11041;50.854;20.580;2023-08-01T01:02:14;15.30;99.90
21759;DHT22;11041;50.854;20.580;2023-08-01T01:04:41;15.20;99.90
21759;DHT22;11041;50.854;20.580;2023-08-01T01:07:08;15.20;99.90
21759;DHT22;11041;50.854;20.580;2023-08-01T01:09:35;15.20;99.90
21759;DHT22;11041;50.854;20.580;2023-08-01T01:12:01;15.10;99.90
21759;DHT22;11041;50.854;20.580;2023-08-01T01:14:30;15.20;99.90
21759;DHT22;11041;50.854;20.580;2023-08-01T01:16:57;15.20;99.90
21759;DHT22;11041;50.854;20.580;2023-08-01T01:19:23;15.30;99.90
21759;DHT22;11041;50.854;20.580;2023-08-01T01:21:50;15.30;99.90
21759;DHT22;11041;50.854;20.580;2023-08-01T01:24:36;15.30;99.90
21759;DHT22;11041;50.854;20.580;2023-08-01T01:27:04;15.40;99.90
21759;DHT22;11041;50.854;20.580;2023-08-01T01:29:33;15.30;99.90
21759;DHT22;11041;50.854;20.580;2023-08-01T01:32:03;15.30;99.90
21759;DHT22;11041;50.854;20.580;2023-08-01T01:34:32;15.20;99.90
21759;DHT22;11041;50.854;20.580;2023-08-01T01:36:58;15.10;99.90
21759;DHT22;11041;50.854;20.580;2023-08-01T01:39:25;15.10;99.90
21759;DHT22;11041;50.854;20.580;2023-08-01T01:41:51;15.20;99.90
21759;DHT22;11041;50.854;20.580;2023-08-01T01:44:18;15.10;99.90
21759;DHT22;11041;50.854;20.580;2023-08-01T01:46:44;15.20;99.90
21759;DHT22;11041;50.854;20.580;2023-08-01T01:49:11;15.30;99.90
21759;DHT22;11041;50.854;20.580;2023-08-01T01:51:37;15.40;99.90
21759;DHT22;11041;50.854;20.580;2023-08-01T01:54:04;15.60;99.90
21759;DHT22;11041;50.854;20.580;2023-08-01T01:56:31;15.70;99.90
21759;DHT22;11041;50.854;20.580;2023-08-01T01:58:57;15.80;99.90
21759;DHT22;11041;50.854;20.580;2023-08-01T02:01:24;16.00;99.90
21759;DHT22;11041;50.854;20.580;2023-08-01T02:03:50;16.10;99.90
21759;DHT22;11041;50.854;20.580;2023-08-01T02:06:17;16.30;99.90
21759;DHT22;11041;50.854;20.580;2023-08-01T02:08:43;16.40;99.90
21759;DHT22;11041;50.854;20.580;2023-08-01T02:11:10;16.50;99.90
21759;DHT22;11041;50.854;20.580;2023-08-01T02:13:37;16.60;99.90
21759;DHT22;11041;50.854;20.580;2023-08-01T02:16:04;16.70;99.90
21759;DHT22;11041;50.854;20.580;2023-08-01T02:18:30;16.80;99.90
21759;DHT22;11041;50.854;20.580;2023-08-01T02:20:57;16.80;99.90
21759;DHT22;11041;50.854;20.580;2023-08-01T02:23:23;16.90;99.90
21759;DHT22;11041;50.854;20.580;2023-08-01T02:25:50;17.00;99.90
21759;DHT22;11041;50.854;20.580;2023-08-01T02:28:16;17.00;99.90
21759;DHT22;11041;50.854;20.580;2023-08-01T02:30:43;17.10;99.90
21759;DHT22;11041;50.854;20.580;2023-08-01T02:33:10;17.10;99.90
21759;DHT22;11041;50.854;20.580;2023-08-01T02:35:37;17.10;99.90
21759;DHT22;11041;50.854;20.580;2023-08-01T02:38:04;17.20;99.90
21759;DHT22;11041;50.854;20.580;2023-08-01T02:40:30;17.20;99.90
21759;DHT22;11041;50.854;20.580;2023-08-01T02:42:57;17.30;99.90
21759;DHT22;11041;50.854;20.580;2023-08-01T02:45:24;17.30;99.90
21759;DHT22;11041;50.854;20.580;2023-08-01T02:47:51;17.30;99.90
21759;DHT22;11041;50.854;20.580;2023-08-01T02:50:18;17.30;99.90
21759;DHT22;11041;50.854;20.580;2023-08-01T02:52:44;17.40;99.90
21759;DHT22;11041;50.854;20.580;2023-08-01T02:55:11;17.40;99.90
21759;DHT22;11041;50.854;20.580;2023-08-01T02:57:37;17.30;99.90
21759;DHT22;11041;50.854;20.580;2023-08-01T03:00:04;17.30;99.90
21759;DHT22;11041;50.854;20.580;2023-08-01T03:02:32;17.30;99.90
21759;DHT22;11041;50.854;20.580;2023-08-01T03:04:58;17.30;99.90
21759;DHT22;11041;50.854;20.580;2023-08-01T03:07:25;17.20;99.90
21759;DHT22;11041;50.854;20.580;2023-08-01T03:09:52;17.20;99.90
21759;DHT22;11041;50.854;20.580;2023-08-01T03:12:18;17.20;99.90
21759;DHT22;11041;50.854;20.580;2023-08-01T03:14:45;17.20;99.90
21759;DHT22;11041;50.854;20.580;2023-08-01T03:17:13;17.10;99.90
21759;DHT22;11041;50.854;20.580;2023-08-01T03:19:40;17.20;99.90
21759;DHT22;11041;50.854;20.580;2023-08-01T03:22:07;17.10;99.90
21759;DHT22;11041;50.854;20.580;2023-08-01T03:24:33;17.10;99.90
21759;DHT22;11041;50.854;20.580;2023-08-01T03:27:00;17.10;99.90
21759;DHT22;11041;50.854;20.580;2023-08-01T03:29:26;17.10;99.90
21759;DHT22;11041;50.854;20.580;2023-08-01T03:31:53;17.10;99.90
21759;DHT22;11041;50.854;20.580;2023-08-01T03:34:20;17.10;99.90
21759;DHT22;11041;50.854;20.580;2023-08-01T03:36:46;17.10;99.90
21759;DHT22;11041;50.854;20.580;2023-08-01T03:39:13;17.10;99.90
21759;DHT22;11041;50.854;20.580;2023-08-01T03:41:39;17.10;99.90
21759;DHT22;11041;50.854;20.580;2023-08-01T03:44:06;17.10;99.90
21759;DHT22;11041;50.854;20.580;2023-08-01T03:46:32;17.10;99.90
21759;DHT22;11041;50.854;20.580;2023-08-01T03:48:59;17.10;99.90
21759;DHT22;11041;50.854;20.580;2023-08-01T03:51:25;17.10;99.90
21759;DHT22;11041;50.854;20.580;2023-08-01T03:53:52;17.10;99.90
21759;DHT22;11041;50.854;20.580;2023-08-01T03:56:19;17.10;99.90
21759;DHT22;11041;50.854;20.580;2023-08-01T03:58:45;17.20;99.90
21759;DHT22;11041;50.854;20.580;2023-08-01T04:01:12;17.20;99.90
21759;DHT22;11041;50.854;20.580;2023-08-01T04:03:38;17.30;99.90
21759;DHT22;11041;50.854;20.580;2023-08-01T04:06:05;17.40;99.90
21759;DHT22;11041;50.854;20.580;2023-08-01T04:08:31;17.40;99.90
21759;DHT22;11041;50.854;20.580;2023-08-01T04:10:58;17.50;99.90
21759;DHT22;11041;50.854;20.580;2023-08-01T04:13:24;17.50;99.90
21759;DHT22;11041;50.854;20.580;2023-08-01T04:15:51;17.50;99.90
21759;DHT22;11041;50.854;20.580;2023-08-01T04:18:17;17.60;99.90
21759;DHT22;11041;50.854;20.580;2023-08-01T04:20:44;17.60;99.90
21759;DHT22;11041;50.854;20.580;2023-08-01T04:23:12;17.60;99.90
21759;DHT22;11041;50.854;20.580;2023-08-01T04:25:41;17.60;99.90
21759;DHT22;11041;50.854;20.580;2023-08-01T04:28:08;17.70;99.90
21759;DHT22;11041;50.854;20.580;2023-08-01T04:30:34;17.70;99.90
21759;DHT22;11041;50.854;20.580;2023-08-01T04:33:01;17.70;99.90
21759;DHT22;11041;50.854;20.580;2023-08-01T04:35:27;17.70;99.90
21759;DHT22;11041;50.854;20.580;2023-08-01T04:37:54;17.70;99.90
21759;DHT22;11041;50.854;20.580;2023-08-01T04:40:21;17.70;99.90
21759;DHT22;11041;50.854;20.580;2023-08-01T04:42:48;17.70;99.90
21759;DHT22;11041;50.854;20.580;2023-08-01T04:45:14;17.80;99.90
21759;DHT22;11041;50.854;20.580;2023-08-01T04:47:41;17.80;99.90
21759;DHT22;11041;50.854;20.580;2023-08-01T04:50:08;17.80;99.90
21759;DHT22;11041;50.854;20.580;2023-08-01T04:52:34;17.80;99.90
21759;DHT22;11041;50.854;20.580;2023-08-01T04:55:01;17.90;99.90
21759;DHT22;11041;50.854;20.580;2023-08-01T04:57:29;17.90;99.90
21759;DHT22;11041;50.854;20.580;2023-08-01T04:59:56;18.00;99.90
21759;DHT22;11041;50.854;20.580;2023-08-01T05:02:22;18.00;99.90
21759;DHT22;11041;50.854;20.580;2023-08-01T05:04:49;18.10;99.90
21759;DHT22;11041;50.854;20.580;2023-08-01T05:07:16;18.20;99.90
21759;DHT22;11041;50.854;20.580;2023-08-01T05:09:42;18.20;99.90
21759;DHT22;11041;50.854;20.580;2023-08-01T05:12:08;18.30;99.90
21759;DHT22;11041;50.854;20.580;2023-08-01T05:14:35;18.40;99.90
21759;DHT22;11041;50.854;20.580;2023-08-01T05:17:01;18.40;99.90
21759;DHT22;11041;50.854;20.580;2023-08-01T05:19:28;18.50;99.90
21759;DHT22;11041;50.854;20.580;2023-08-01T05:21:55;18.60;99.90
21759;DHT22;11041;50.854;20.580;2023-08-01T05:24:21;18.70;99.90
21759;DHT22;11041;50.854;20.580;2023-08-01T05:26:48;18.80;99.90
21759;DHT22;11041;50.854;20.580;2023-08-01T05:29:14;18.80;99.90
21759;DHT22;11041;50.854;20.580;2023-08-01T05:31:41;18.90;99.90
21759;DHT22;11041;50.854;20.580;2023-08-01T05:34:07;19.00;99.90
21759;DHT22;11041;50.854;20.580;2023-08-01T05:36:34;19.20;99.90
21759;DHT22;11041;50.854;20.580;2023-08-01T05:39:01;19.20;99.90
21759;DHT22;11041;50.854;20.580;2023-08-01T05:41:27;19.30;99.90
21759;DHT22;11041;50.854;20.580;2023-08-01T05:43:54;19.40;99.90
21759;DHT22;11041;50.854;20.580;2023-08-01T05:46:20;19.50;99.90
21759;DHT22;11041;50.854;20.580;2023-08-01T05:48:47;19.50;99.90
21759;DHT22;11041;50.854;20.580;2023-08-01T05:51:14;19.50;99.90
21759;DHT22;11041;50.854;20.580;2023-08-01T05:53:40;19.60;99.90
21759;DHT22;11041;50.854;20.580;2023-08-01T05:56:07;19.60;99.90
21759;DHT22;11041;50.854;20.580;2023-08-01T05:58:34;19.70;99.90
21759;DHT22;11041;50.854;20.580;2023-08-01T06:01:00;19.70;99.90
21759;DHT22;11041;50.854;20.580;2023-08-01T06:03:27;19.80;99.90
21759;DHT22;11041;50.854;20.580;2023-08-01T06:05:54;19.90;99.90
21759;DHT22;11041;50.854;20.580;2023-08-01T06:08:20;20.00;99.90
21759;DHT22;11041;50.854;20.580;2023-08-01T06:10:47;20.10;99.90
21759;DHT22;11041;50.854;20.580;2023-08-01T06:13:14;20.20;99.90
21759;DHT22;11041;50.854;20.580;2023-08-01T06:15:40;20.20;99.90
21759;DHT22;11041;50.854;20.580;2023-08-01T06:18:07;20.30;99.90
21759;DHT22;11041;50.854;20.580;2023-08-01T06:20:33;20.30;99.90
21759;DHT22;11041;50.854;20.580;2023-08-01T06:23:00;20.40;99.90
21759;DHT22;11041;50.854;20.580;2023-08-01T06:25:26;20.50;99.90
21759;DHT22;11041;50.854;20.580;2023-08-01T06:27:53;20.60;99.90
21759;DHT22;11041;50.854;20.580;2023-08-01T06:30:19;20.70;99.90
21759;DHT22;11041;50.854;20.580;2023-08-01T06:32:46;20.80;99.90
21759;DHT22;11041;50.854;20.580;2023-08-01T06:35:12;20.90;99.90
21759;DHT22;11041;50.854;20.580;2023-08-01T06:37:39;21.00;99.90
21759;DHT22;11041;50.854;20.580;2023-08-01T06:40:06;21.10;99.90
21759;DHT22;11041;50.854;20.580;2023-08-01T06:42:34;21.20;99.90
21759;DHT22;11041;50.854;20.580;2023-08-01T06:45:00;21.20;99.90
21759;DHT22;11041;50.854;20.580;2023-08-01T06:47:28;21.30;99.90
21759;DHT22;11041;50.854;20.580;2023-08-01T06:49:55;21.30;99.90
21759;DHT22;11041;50.854;20.580;2023-08-01T06:52:22;21.30;99.90
21759;DHT22;11041;50.854;20.580;2023-08-01T06:54:48;21.30;99.90
21759;DHT22;11041;50.854;20.580;2023-08-01T06:57:14;21.40;99.90
21759;DHT22;11041;50.854;20.580;2023-08-01T06:59:41;21.50;99.90
21759;DHT22;11041;50.854;20.580;2023-08-01T07:02:08;21.60;99.90
21759;DHT22;11041;50.854;20.580;2023-08-01T07:04:34;21.60;99.90
21759;DHT22;11041;50.854;20.580;2023-08-01T07:07:01;21.70;99.90
21759;DHT22;11041;50.854;20.580;2023-08-01T07:09:27;21.80;99.90
21759;DHT22;11041;50.854;20.580;2023-08-01T07:11:54;21.90;99.90
21759;DHT22;11041;50.854;20.580;2023-08-01T07:14:20;21.90;99.90
21759;DHT22;11041;50.854;20.580;2023-08-01T07:16:47;21.90;99.90
21759;DHT22;11041;50.854;20.580;2023-08-01T07:19:14;22.00;99.90
21759;DHT22;11041;50.854;20.580;2023-08-01T07:21:41;22.00;99.90
21759;DHT22;11041;50.854;20.580;2023-08-01T07:24:10;22.00;99.90
21759;DHT22;11041;50.854;20.580;2023-08-01T07:26:37;22.10;99.90
21759;DHT22;11041;50.854;20.580;2023-08-01T07:29:03;22.20;99.90
21759;DHT22;11041;50.854;20.580;2023-08-01T07:31:30;22.20;99.90
21759;DHT22;11041;50.854;20.580;2023-08-01T07:33:56;22.30;99.90
21759;DHT22;11041;50.854;20.580;2023-08-01T07:36:23;22.40;99.90
21759;DHT22;11041;50.854;20.580;2023-08-01T07:38:50;22.60;99.90
21759;DHT22;11041;50.854;20.580;2023-08-01T07:41:17;22.70;99.90
21759;DHT22;11041;50.854;20.580;2023-08-01T07:43:43;22.80;99.90
21759;DHT22;11041;50.854;20.580;2023-08-01T07:46:10;22.90;99.90
21759;DHT22;11041;50.854;20.580;2023-08-01T07:48:38;23.00;99.90
21759;DHT22;11041;50.854;20.580;2023-08-01T07:51:05;23.00;99.90
21759;DHT22;11041;50.854;20.580;2023-08-01T07:53:34;23.10;99.90
21759;DHT22;11041;50.854;20.580;2023-08-01T07:56:01;23.10;99.90
21759;DHT22;11041;50.854;20.580;2023-08-01T07:58:29;23.20;99.90
21759;DHT22;11041;50.854;20.580;2023-08-01T08:00:56;23.10;99.90
21759;DHT22;11041;50.854;20.580;2023-08-01T08:03:22;23.20;99.90
21759;DHT22;11041;50.854;20.580;2023-08-01T08:05:50;23.20;99.90
21759;DHT22;11041;50.854;20.580;2023-08-01T08:08:17;23.30;99.90
21759;DHT22;11041;50.854;20.580;2023-08-01T08:10:43;23.30;99.90
21759;DHT22;11041;50.854;20.580;2023-08-01T08:13:10;23.30;99.90
21759;DHT22;11041;50.854;20.580;2023-08-01T08:15:36;23.20;99.90
21759;DHT22;11041;50.854;20.580;2023-08-01T08:18:03;23.20;99.90
21759;DHT22;11041;50.854;20.580;2023-08-01T08:20:33;23.20;99.90
21759;DHT22;11041;50.854;20.580;2023-08-01T08:23:06;23.30;99.90
21759;DHT22;11041;50.854;20.580;2023-08-01T08:25:33;23.10;99.90
21759;DHT22;11041;50.854;20.580;2023-08-01T08:27:59;23.00;99.90
21759;DHT22;11041;50.854;20.580;2023-08-01T08:30:26;23.00;99.90
21759;DHT22;11041;50.854;20.580;2023-08-01T08:32:52;23.00;99.90
21759;DHT22;11041;50.854;20.580;2023-08-01T08:35:19;23.00;99.90
21759;DHT22;11041;50.854;20.580;2023-08-01T08:37:45;23.10;99.90
21759;DHT22;11041;50.854;20.580;2023-08-01T08:40:12;23.10;99.90
21759;DHT22;11041;50.854;20.580;2023-08-01T08:42:40;23.20;99.90
21759;DHT22;11041;50.854;20.580;2023-08-01T08:45:09;23.30;99.90
21759;DHT22;11041;50.854;20.580;2023-08-01T08:47:38;23.30;99.90
21759;DHT22;11041;50.854;20.580;2023-08-01T08:50:10;23.30;99.90
21759;DHT22;11041;50.854;20.580;2023-08-01T08:52:38;23.20;99.90
21759;DHT22;11041;50.854;20.580;2023-08-01T08:55:07;23.30;99.90
21759;DHT22;11041;50.854;20.580;2023-08-01T08:57:34;23.50;99.90
21759;DHT22;11041;50.854;20.580;2023-08-01T09:00:03;23.70;99.90
21759;DHT22;11041;50.854;20.580;2023-08-01T09:02:32;24.00;99.90
21759;DHT22;11041;50.854;20.580;2023-08-01T09:04:59;24.00;99.90
21759;DHT22;11041;50.854;20.580;2023-08-01T09:07:29;24.00;99.90
21759;DHT22;11041;50.854;20.580;2023-08-01T09:09:58;24.00;99.90
21759;DHT22;11041;50.854;20.580;2023-08-01T09:12:25;23.90;99.90
21759;DHT22;11041;50.854;20.580;2023-08-01T09:14:52;23.90;99.90
21759;DHT22;11041;50.854;20.580;2023-08-01T09:17:22;24.00;99.90
21759;DHT22;11041;50.854;20.580;2023-08-01T09:20:04;24.10;99.90
21759;DHT22;11041;50.854;20.580;2023-08-01T09:22:52;24.00;99.90
21759;DHT22;11041;50.854;20.580;2023-08-01T09:25:19;24.00;99.90
21759;DHT22;11041;50.854;20.580;2023-08-01T09:27:46;23.90;99.90
21759;DHT22;11041;50.854;20.580;2023-08-01T09:30:13;24.00;99.90
21759;DHT22;11041;50.854;20.580;2023-08-01T09:32:55;23.90;99.90
21759;DHT22;11041;50.854;20.580;2023-08-01T09:35:23;23.90;99.90
21759;DHT22;11041;50.854;20.580;2023-08-01T09:37:49;23.90;99.90
21759;DHT22;11041;50.854;20.580;2023-08-01T09:40:16;23.90;99.90
21759;DHT22;11041;50.854;20.580;2023-08-01T09:42:44;23.90;99.90
21759;DHT22;11041;50.854;20.580;2023-08-01T09:45:13;23.80;99.90
21759;DHT22;11041;50.854;20.580;2023-08-01T09:47:45;23.80;99.90
21759;DHT22;11041;50.854;20.580;2023-08-01T09:50:21;23.60;99.90
21759;DHT22;11041;50.854;20.580;2023-08-01T09:52:48;23.70;99.90
21759;DHT22;11041;50.854;20.580;2023-08-01T09:55:33;23.50;99.90
21759;DHT22;11041;50.854;20.580;2023-08-01T09:58:00;23.50;99.90
21759;DHT22;11041;50.854;20.580;2023-08-01T10:00:28;23.30;99.90
21759;DHT22;11041;50.854;20.580;2023-08-01T10:02:59;23.10;99.90
21759;DHT22;11041;50.854;20.580;2023-08-01T10:05:31;22.80;99.90
21759;DHT22;11041;50.854;20.580;2023-08-01T10:07:59;22.70;99.90
21759;DHT22;11041;50.854;20.580;2023-08-01T10:10:28;22.60;99.90
21759;DHT22;11041;50.854;20.580;2023-08-01T10:12:56;22.50;99.90
21759;DHT22;11041;50.854;20.580;2023-08-01T10:15:24;22.20;99.90
21759;DHT22;11041;50.854;20.580;2023-08-01T10:17:53;22.20;99.90
21759;DHT22;11041;50.854;20.580;2023-08-01T10:20:21;22.20;99.90
21759;DHT22;11041;50.854;20.580;2023-08-01T10:22:50;22.10;99.90
21759;DHT22;11041;50.854;20.580;2023-08-01T10:25:18;22.10;99.90
21759;DHT22;11041;50.854;20.580;2023-08-01T10:28:04;22.10;99.90
21759;DHT22;11041;50.854;20.580;2023-08-01T10:30:32;22.20;99.90
21759;DHT22;11041;50.854;20.580;2023-08-01T10:33:00;22.20;99.90
21759;DHT22;11041;50.854;20.580;2023-08-01T10:35:37;22.30;99.90
21759;DHT22;11041;50.854;20.580;2023-08-01T10:38:11;22.30;99.90
21759;DHT22;11041;50.854;20.580;2023-08-01T10:40:42;22.30;99.90
21759;DHT22;11041;50.854;20.580;2023-08-01T10:43:22;22.30;99.90
21759;DHT22;11041;50.854;20.580;2023-08-01T10:46:03;22.30;99.90
21759;DHT22;11041;50.854;20.580;2023-08-01T10:48:30;22.30;99.90
21759;DHT22;11041;50.854;20.580;2023-08-01T10:50:57;22.40;99.90
21759;DHT22;11041;50.854;20.580;2023-08-01T10:53:24;22.50;99.90
21759;DHT22;11041;50.854;20.580;2023-08-01T10:55:50;22.40;99.90
21759;DHT22;11041;50.854;20.580;2023-08-01T10:58:18;22.50;99.90
21759;DHT22;11041;50.854;20.580;2023-08-01T11:00:44;22.60;99.90
21759;DHT22;11041;50.854;20.580;2023-08-01T11:03:11;22.60;99.90
21759;DHT22;11041;50.854;20.580;2023-08-01T11:05:38;22.70;99.90
21759;DHT22;11041;50.854;20.580;2023-08-01T11:08:04;22.80;99.90
21759;DHT22;11041;50.854;20.580;2023-08-01T11:10:32;22.80;99.90
21759;DHT22;11041;50.854;20.580;2023-08-01T11:12:59;22.80;99.90
21759;DHT22;11041;50.854;20.580;2023-08-01T11:15:26;22.80;99.90
21759;DHT22;11041;50.854;20.580;2023-08-01T11:17:55;22.80;99.90
21759;DHT22;11041;50.854;20.580;2023-08-01T11:20:24;22.90;99.90
21759;DHT22;11041;50.854;20.580;2023-08-01T11:22:59;23.00;99.90
21759;DHT22;11041;50.854;20.580;2023-08-01T11:25:38;23.10;99.90
21759;DHT22;11041;50.854;20.580;2023-08-01T11:28:07;23.20;99.90
21759;DHT22;11041;50.854;20.580;2023-08-01T11:30:42;23.20;99.90
21759;DHT22;11041;50.854;20.580;2023-08-01T11:33:18;23.30;99.90
21759;DHT22;11041;50.854;20.580;2023-08-01T11:35:51;23.30;99.90
21759;DHT22;11041;50.854;20.580;2023-08-01T11:38:29;23.20;99.90
21759;DHT22;11041;50.854;20.580;2023-08-01T11:40:58;23.10;99.90
21759;DHT22;11041;50.854;20.580;2023-08-01T11:43:24;23.10;99.90
21759;DHT22;11041;50.854;20.580;2023-08-01T11:45:52;23.10;99.90
21759;DHT22;11041;50.854;20.580;2023-08-01T11:48:23;23.00;99.90
21759;DHT22;11041;50.854;20.580;2023-08-01T11:51:00;22.80;99.90
21759;DHT22;11041;50.854;20.580;2023-08-01T11:53:28;22.60;99.90
21759;DHT22;11041;50.854;20.580;2023-08-01T11:55:56;22.40;99.90
21759;DHT22;11041;50.854;20.580;2023-08-01T11:58:36;22.30;99.90
21759;DHT22;11041;50.854;20.580;2023-08-01T12:01:11;22.20;99.90
21759;DHT22;11041;50.854;20.580;2023-08-01T12:03:47;22.00;99.90
21759;DHT22;11041;50.854;20.580;2023-08-01T12:06:17;21.90;99.90
21759;DHT22;11041;50.854;20.580;2023-08-01T12:08:47;21.90;99.90
21759;DHT22;11041;50.854;20.580;2023-08-01T12:11:26;21.80;99.90
21759;DHT22;11041;50.854;20.580;2023-08-01T12:14:14;21.70;99.90
21759;DHT22;11041;50.854;20.580;2023-08-01T12:16:42;21.60;99.90
21759;DHT22;11041;50.854;20.580;2023-08-01T12:19:17;21.60;99.90
21759;DHT22;11041;50.854;20.580;2023-08-01T12:21:46;21.50;99.90
21759;DHT22;11041;50.854;20.580;2023-08-01T12:24:12;21.40;99.90
21759;DHT22;11041;50.854;20.580;2023-08-01T12:26:39;21.30;99.90
21759;DHT22;11041;50.854;20.580;2023-08-01T12:29:06;21.20;99.90
21759;DHT22;11041;50.854;20.580;2023-08-01T12:31:33;21.10;99.90
21759;DHT22;11041;50.854;20.580;2023-08-01T12:34:00;21.10;99.90
21759;DHT22;11041;50.854;20.580;2023-08-01T12:36:27;21.00;99.90
21759;DHT22;11041;50.854;20.580;2023-08-01T12:38:53;20.90;99.90
21759;DHT22;11041;50.854;20.580;2023-08-01T12:41:20;20.80;99.90
21759;DHT22;11041;50.854;20.580;2023-08-01T12:43:46;20.80;99.90
21759;DHT22;11041;50.854;20.580;2023-08-01T12:46:13;20.70;99.90
21759;DHT22;11041;50.854;20.580;2023-08-01T12:48:40;20.60;99.90
21759;DHT22;11041;50.854;20.580;2023-08-01T12:51:07;20.50;99.90
21759;DHT22;11041;50.854;20.580;2023-08-01T12:53:34;20.40;99.90
21759;DHT22;11041;50.854;20.580;2023-08-01T12:56:01;20.40;99.90
21759;DHT22;11041;50.854;20.580;2023-08-01T12:58:27;20.20;99.90
21759;DHT22;11041;50.854;20.580;2023-08-01T13:00:54;20.10;99.90
21759;DHT22;11041;50.854;20.580;2023-08-01T13:03:21;20.00;99.90
21759;DHT22;11041;50.854;20.580;2023-08-01T13:05:48;20.00;99.90
21759;DHT22;11041;50.854;20.580;2023-08-01T13:08:14;20.00;99.90
21759;DHT22;11041;50.854;20.580;2023-08-01T13:10:41;20.00;99.90
21759;DHT22;11041;50.854;20.580;2023-08-01T13:13:07;19.90;99.90
21759;DHT22;11041;50.854;20.580;2023-08-01T13:15:34;19.80;99.90
21759;DHT22;11041;50.854;20.580;2023-08-01T13:18:00;19.80;99.90
21759;DHT22;11041;50.854;20.580;2023-08-01T13:20:27;19.80;99.90
21759;DHT22;11041;50.854;20.580;2023-08-01T13:22:53;19.80;99.90
21759;DHT22;11041;50.854;20.580;2023-08-01T13:25:20;19.80;99.90
21759;DHT22;11041;50.854;20.580;2023-08-01T13:27:47;19.70;99.90
21759;DHT22;11041;50.854;20.580;2023-08-01T13:30:13;19.80;99.90
21759;DHT22;11041;50.854;20.580;2023-08-01T13:32:41;19.70;99.90
21759;DHT22;11041;50.854;20.580;2023-08-01T13:35:08;19.70;99.90
21759;DHT22;11041;50.854;20.580;2023-08-01T13:37:34;19.70;99.90
21759;DHT22;11041;50.854;20.580;2023-08-01T13:40:01;19.60;99.90
21759;DHT22;11041;50.854;20.580;2023-08-01T13:42:29;19.60;99.90
21759;DHT22;11041;50.854;20.580;2023-08-01T13:44:56;19.60;99.90
21759;DHT22;11041;50.854;20.580;2023-08-01T13:47:23;19.60;99.90
21759;DHT22;11041;50.854;20.580;2023-08-01T13:49:50;19.60;99.90
21759;DHT22;11041;50.854;20.580;2023-08-01T13:52:16;19.60;99.90
21759;DHT22;11041;50.854;20.580;2023-08-01T13:54:43;19.70;99.90
21759;DHT22;11041;50.854;20.580;2023-08-01T13:57:13;19.70;99.90
21759;DHT22;11041;50.854;20.580;2023-08-01T13:59:39;19.60;99.90
21759;DHT22;11041;50.854;20.580;2023-08-01T14:02:05;19.60;99.90
21759;DHT22;11041;50.854;20.580;2023-08-01T14:04:32;19.60;99.90
21759;DHT22;11041;50.854;20.580;2023-08-01T14:06:59;19.60;99.90
21759;DHT22;11041;50.854;20.580;2023-08-01T14:09:26;19.50;99.90
21759;DHT22;11041;50.854;20.580;2023-08-01T14:11:52;19.50;99.90
21759;DHT22;11041;50.854;20.580;2023-08-01T14:14:19;19.50;99.90
21759;DHT22;11041;50.854;20.580;2023-08-01T14:16:45;19.50;99.90
21759;DHT22;11041;50.854;20.580;2023-08-01T14:19:12;19.50;99.90
21759;DHT22;11041;50.854;20.580;2023-08-01T14:21:38;19.50;99.90
21759;DHT22;11041;50.854;20.580;2023-08-01T14:24:05;19.50;99.90
21759;DHT22;11041;50.854;20.580;2023-08-01T14:26:32;19.50;99.90
21759;DHT22;11041;50.854;20.580;2023-08-01T14:28:58;19.50;99.90
21759;DHT22;11041;50.854;20.580;2023-08-01T14:31:25;19.50;99.90
21759;DHT22;11041;50.854;20.580;2023-08-01T14:33:51;19.50;99.90
21759;DHT22;11041;50.854;20.580;2023-08-01T14:36:18;19.40;99.90
21759;DHT22;11041;50.854;20.580;2023-08-01T14:38:44;19.40;99.90
21759;DHT22;11041;50.854;20.580;2023-08-01T14:41:15;19.40;99.90
21759;DHT22;11041;50.854;20.580;2023-08-01T14:43:42;19.30;99.90
21759;DHT22;11041;50.854;20.580;2023-08-01T14:46:10;19.30;99.90
21759;DHT22;11041;50.854;20.580;2023-08-01T14:48:37;19.30;99.90
21759;DHT22;11041;50.854;20.580;2023-08-01T14:51:07;19.40;99.90
21759;DHT22;11041;50.854;20.580;2023-08-01T14:53:33;19.40;99.90
21759;DHT22;11041;50.854;20.580;2023-08-01T14:56:00;19.30;99.90
21759;DHT22;11041;50.854;20.580;2023-08-01T14:58:29;19.30;99.90
21759;DHT22;11041;50.854;20.580;2023-08-01T15:00:55;19.30;99.90
21759;DHT22;11041;50.854;20.580;2023-08-01T15:03:22;19.30;99.90
21759;DHT22;11041;50.854;20.580;2023-08-01T15:05:48;19.30;99.90
21759;DHT22;11041;50.854;20.580;2023-08-01T15:08:15;19.20;99.90
21759;DHT22;11041;50.854;20.580;2023-08-01T15:10:41;19.20;99.90
21759;DHT22;11041;50.854;20.580;2023-08-01T15:13:09;19.20;99.90
21759;DHT22;11041;50.854;20.580;2023-08-01T15:15:37;19.20;99.90
21759;DHT22;11041;50.854;20.580;2023-08-01T15:18:04;19.20;99.90